createdAt,value
2018-02-15T00:01:53.915Z,0.30
2018-02-15T00:04:21.347Z,0.30
2018-02-15T00:06:48.767Z,0.30
2018-02-15T00:09:16.197Z,0.30
2018-02-15T00:11:43.628Z,0.30
2018-02-15T00:14:11.055Z,0.30
2018-02-15T00:16:38.552Z,0.30
2018-02-15T00:19:05.988Z,0.40
2018-02-15T00:21:34.187Z,0.30
2018-02-15T00:24:01.615Z,0.30
2018-02-15T00:26:29.048Z,0.30
2018-02-15T00:28:56.480Z,0.30
2018-02-15T00:31:23.903Z,0.40
2018-02-15T00:33:51.328Z,0.40
2018-02-15T00:36:18.760Z,0.50
2018-02-15T00:38:46.184Z,0.40
2018-02-15T00:41:14.380Z,0.30
2018-02-15T00:43:41.809Z,0.30
2018-02-15T00:46:09.251Z,0.30
2018-02-15T00:48:36.679Z,0.30
2018-02-15T00:51:04.111Z,0.30
2018-02-15T00:53:31.527Z,0.30
2018-02-15T00:55:59.732Z,0.30
2018-02-15T00:58:27.161Z,0.20
2018-02-15T01:00:54.591Z,0.20
2018-02-15T01:03:22.789Z,0.40
2018-02-15T01:05:50.268Z,0.30
2018-02-15T01:08:17.717Z,0.40
2018-02-15T01:10:45.152Z,0.50
2018-02-15T01:13:12.772Z,0.50
2018-02-15T01:15:40.207Z,0.50
2018-02-15T01:18:08.549Z,0.50
2018-02-15T01:20:35.988Z,0.60
2018-02-15T01:23:04.171Z,0.60
2018-02-15T01:25:31.591Z,0.60
2018-02-15T01:27:59.028Z,0.60
2018-02-15T01:30:26.461Z,0.50
2018-02-15T01:32:54.651Z,0.60
2018-02-15T01:35:22.086Z,0.60
2018-02-15T01:37:49.522Z,0.60
2018-02-15T01:40:16.952Z,0.60
2018-02-15T01:42:44.379Z,0.70
2018-02-15T01:45:11.819Z,0.70
2018-02-15T01:47:39.260Z,0.70
2018-02-15T01:50:06.671Z,0.70
2018-02-15T01:52:34.876Z,0.70
2018-02-15T01:55:02.300Z,0.70
2018-02-15T01:57:30.552Z,0.70
2018-02-15T01:59:57.979Z,0.80
2018-02-15T02:02:25.423Z,0.80
2018-02-15T02:04:52.844Z,0.80
2018-02-15T02:07:20.263Z,0.80
2018-02-15T02:09:47.700Z,0.80
2018-02-15T02:12:15.142Z,0.80
2018-02-15T02:14:42.572Z,0.80
2018-02-15T02:17:09.992Z,0.80
2018-02-15T02:19:37.427Z,0.90
2018-02-15T02:22:04.920Z,0.90
2018-02-15T02:24:32.354Z,0.90
2018-02-15T02:26:59.793Z,0.90
2018-02-15T02:29:27.211Z,0.90
2018-02-15T02:31:55.416Z,0.90
2018-02-15T02:34:22.871Z,0.90
2018-02-15T02:36:50.304Z,1.00
2018-02-15T02:39:17.723Z,1.00
2018-02-15T02:41:45.160Z,1.00
2018-02-15T02:44:12.571Z,1.00
2018-02-15T02:46:40.008Z,1.00
2018-02-15T02:49:07.427Z,1.00
2018-02-15T02:51:34.863Z,1.00
2018-02-15T02:54:02.284Z,1.00
2018-02-15T02:56:29.720Z,1.00
2018-02-15T02:58:57.142Z,1.10
2018-02-15T03:01:24.584Z,1.10
2018-02-15T03:03:52.911Z,1.10
2018-02-15T03:06:20.352Z,1.10
2018-02-15T03:08:47.780Z,1.10
2018-02-15T03:11:15.211Z,1.10
2018-02-15T03:13:42.652Z,1.10
2018-02-15T03:16:10.846Z,1.10
2018-02-15T03:18:38.276Z,1.10
2018-02-15T03:21:05.700Z,1.10
2018-02-15T03:23:33.131Z,1.10
2018-02-15T03:26:00.559Z,1.10
2018-02-15T03:28:28.029Z,1.10
2018-02-15T03:30:56.228Z,1.10
2018-02-15T03:33:23.644Z,1.10
2018-02-15T03:35:51.064Z,1.10
2018-02-15T03:38:18.496Z,1.20
2018-02-15T03:40:45.923Z,1.20
2018-02-15T03:43:13.351Z,1.20
2018-02-15T03:45:41.549Z,1.20
2018-02-15T03:48:08.980Z,1.20
2018-02-15T03:50:36.399Z,1.20
2018-02-15T03:53:03.835Z,1.20
2018-02-15T03:55:31.325Z,1.30
2018-02-15T03:57:58.760Z,1.30
2018-02-15T04:00:26.202Z,1.30
2018-02-15T04:02:53.614Z,1.30
2018-02-15T04:05:21.816Z,1.30
2018-02-15T04:07:49.230Z,1.30
2018-02-15T04:10:16.660Z,1.30
2018-02-15T04:12:44.088Z,1.30
2018-02-15T04:15:11.519Z,1.30
2018-02-15T04:17:39.744Z,1.30
2018-02-15T04:20:07.152Z,1.30
2018-02-15T04:22:34.575Z,1.30
2018-02-15T04:25:02.008Z,1.30
2018-02-15T04:27:29.436Z,1.30
2018-02-15T04:29:56.872Z,1.30
2018-02-15T04:32:25.078Z,1.30
2018-02-15T04:34:52.567Z,1.30
2018-02-15T04:37:20.005Z,1.30
2018-02-15T04:39:47.429Z,1.30
2018-02-15T04:42:14.867Z,1.30
2018-02-15T04:44:42.346Z,1.30
2018-02-15T04:47:09.788Z,1.30
2018-02-15T04:49:37.207Z,1.30
2018-02-15T04:52:04.638Z,1.30
2018-02-15T04:54:32.066Z,1.30
2018-02-15T04:56:59.499Z,1.30
2018-02-15T04:59:27.703Z,1.30
2018-02-15T05:01:55.132Z,1.30
2018-02-15T05:04:22.547Z,1.30
2018-02-15T05:06:49.983Z,1.30
2018-02-15T05:09:17.408Z,1.30
2018-02-15T05:11:44.840Z,1.30
2018-02-15T05:14:12.276Z,1.30
2018-02-15T05:16:39.711Z,1.30
2018-02-15T05:19:07.136Z,1.30
2018-02-15T05:21:34.560Z,1.30
2018-02-15T05:24:01.996Z,1.30
2018-02-15T05:26:29.607Z,1.30
2018-02-15T05:28:57.040Z,1.40
2018-02-15T05:31:25.232Z,1.40
2018-02-15T05:33:52.711Z,1.40
2018-02-15T05:36:20.120Z,1.40
2018-02-15T05:38:47.547Z,1.40
2018-02-15T05:41:14.973Z,1.40
2018-02-15T05:43:42.395Z,1.50
2018-02-15T05:46:10.646Z,1.50
2018-02-15T05:48:38.033Z,1.50
2018-02-15T05:51:06.236Z,1.80
2018-02-15T05:53:33.672Z,1.50
2018-02-15T05:56:01.109Z,1.50
2018-02-15T05:58:28.555Z,1.50
2018-02-15T06:00:55.984Z,1.50
2018-02-15T06:03:23.412Z,1.50
2018-02-15T06:05:50.852Z,1.50
2018-02-15T06:08:18.267Z,1.50
2018-02-15T06:10:45.708Z,1.50
2018-02-15T06:13:13.139Z,1.50
2018-02-15T06:15:40.595Z,1.60
2018-02-15T06:18:08.015Z,1.60
2018-02-15T06:20:36.220Z,1.60
2018-02-15T06:23:03.688Z,1.60
2018-02-15T06:25:31.105Z,1.60
2018-02-15T06:27:58.543Z,1.60
2018-02-15T06:30:25.979Z,1.60
2018-02-15T06:32:53.411Z,1.60
2018-02-15T06:35:20.876Z,1.60
2018-02-15T06:37:48.312Z,1.80
2018-02-15T06:40:15.744Z,1.70
2018-02-15T06:42:43.948Z,1.70
2018-02-15T06:45:11.375Z,1.70
2018-02-15T06:47:38.811Z,1.70
2018-02-15T06:50:07.025Z,1.70
2018-02-15T06:52:34.654Z,1.60
2018-02-15T06:55:02.108Z,1.60
2018-02-15T06:57:29.531Z,1.60
2018-02-15T06:59:57.269Z,1.60
2018-02-15T07:02:24.680Z,1.50
2018-02-15T07:04:52.104Z,1.50
2018-02-15T07:07:19.533Z,1.40
2018-02-15T07:09:47.149Z,1.40
2018-02-15T07:12:15.327Z,1.40
2018-02-15T07:14:42.768Z,1.40
2018-02-15T07:17:10.192Z,1.40
2018-02-15T07:19:37.644Z,1.30
2018-02-15T07:22:05.071Z,1.30
2018-02-15T07:24:32.500Z,1.20
2018-02-15T07:26:59.927Z,1.20
2018-02-15T07:29:27.357Z,1.20
2018-02-15T07:31:54.829Z,1.20
2018-02-15T07:34:22.266Z,1.10
2018-02-15T07:36:49.718Z,1.10
2018-02-15T07:39:17.157Z,1.10
2018-02-15T07:41:44.592Z,1.10
2018-02-15T07:44:12.791Z,0.90
2018-02-15T07:46:40.242Z,0.90
2018-02-15T07:49:07.667Z,0.90
2018-02-15T07:51:35.095Z,0.90
2018-02-15T07:54:02.531Z,0.90
2018-02-15T07:56:29.967Z,0.90
2018-02-15T07:58:57.399Z,0.90
2018-02-15T08:01:24.831Z,0.90
2018-02-15T08:03:52.249Z,0.90
2018-02-15T08:06:19.680Z,0.90
2018-02-15T08:08:47.121Z,0.90
2018-02-15T08:11:14.544Z,0.80
2018-02-15T08:13:41.994Z,0.80
2018-02-15T08:16:09.411Z,0.80
2018-02-15T08:18:36.843Z,0.90
2018-02-15T08:21:04.270Z,0.90
2018-02-15T08:23:31.713Z,0.70
2018-02-15T08:25:59.135Z,0.70
2018-02-15T08:28:26.620Z,0.70
2018-02-15T08:30:54.044Z,0.70
2018-02-15T08:33:21.476Z,0.60
2018-02-15T08:35:48.909Z,0.60
2018-02-15T08:38:16.346Z,0.60
2018-02-15T08:40:43.789Z,0.60
2018-02-15T08:43:11.211Z,0.60
2018-02-15T08:45:38.658Z,0.70
2018-02-15T08:48:06.092Z,0.70
2018-02-15T08:50:33.534Z,0.80
2018-02-15T08:53:00.953Z,0.80
2018-02-15T08:55:28.379Z,0.80
2018-02-15T08:57:55.803Z,0.80
2018-02-15T09:00:23.235Z,0.80
2018-02-15T09:02:50.657Z,0.80
2018-02-15T09:05:18.856Z,0.90
2018-02-15T09:07:46.279Z,0.90
2018-02-15T09:10:13.711Z,0.90
2018-02-15T09:12:41.136Z,1.00
2018-02-15T09:15:08.589Z,1.00
2018-02-15T09:17:35.996Z,1.10
2018-02-15T09:20:04.183Z,1.10
2018-02-15T09:22:31.620Z,1.10
2018-02-15T09:24:59.048Z,1.10
2018-02-15T09:27:26.476Z,1.10
2018-02-15T09:29:53.904Z,1.20
2018-02-15T09:32:22.108Z,1.30
2018-02-15T09:34:49.535Z,1.20
2018-02-15T09:37:16.972Z,1.20
2018-02-15T09:39:44.391Z,1.30
2018-02-15T09:42:11.814Z,1.30
2018-02-15T09:44:39.246Z,1.40
2018-02-15T09:47:07.452Z,1.40
2018-02-15T09:49:34.870Z,1.40
2018-02-15T09:52:02.297Z,1.40
2018-02-15T09:54:29.732Z,1.40
2018-02-15T09:56:57.147Z,1.40
2018-02-15T09:59:25.334Z,1.40
2018-02-15T10:01:52.757Z,1.40
2018-02-15T10:04:20.194Z,1.40
2018-02-15T10:06:47.631Z,1.50
2018-02-15T10:09:15.057Z,1.50
2018-02-15T10:11:42.488Z,1.50
2018-02-15T10:14:09.936Z,1.60
2018-02-15T10:16:37.356Z,1.60
2018-02-15T10:19:04.788Z,1.60
2018-02-15T10:21:32.214Z,1.50
2018-02-15T10:23:59.631Z,1.60
2018-02-15T10:26:27.063Z,1.60
2018-02-15T10:28:54.484Z,1.70
2018-02-15T10:31:21.922Z,1.80
2018-02-15T10:33:49.348Z,1.80
2018-02-15T10:36:16.784Z,1.80
2018-02-15T10:38:44.203Z,1.80
2018-02-15T10:41:12.408Z,1.80
2018-02-15T10:43:39.832Z,1.80
2018-02-15T10:46:07.264Z,1.90
2018-02-15T10:48:34.725Z,1.90
2018-02-15T10:51:02.124Z,1.90
2018-02-15T10:53:29.555Z,1.90
2018-02-15T10:55:57.743Z,1.90
2018-02-15T10:58:25.216Z,1.90
2018-02-15T11:00:58.164Z,1.90
2018-02-15T11:03:30.418Z,1.90
2018-02-15T11:06:00.771Z,1.90
2018-02-15T11:08:28.207Z,1.90
2018-02-15T11:10:55.639Z,1.90
2018-02-15T11:13:23.174Z,1.90
2018-02-15T11:15:50.648Z,1.90
2018-02-15T11:18:18.288Z,1.90
2018-02-15T11:20:45.760Z,2.00
2018-02-15T11:23:13.193Z,1.90
2018-02-15T11:25:40.621Z,1.90
2018-02-15T11:28:08.054Z,1.90
2018-02-15T11:30:35.487Z,1.90
2018-02-15T11:33:02.912Z,1.90
2018-02-15T11:35:30.395Z,1.90
2018-02-15T11:37:57.798Z,1.90
2018-02-15T11:40:25.240Z,1.90
2018-02-15T11:42:52.661Z,1.90
2018-02-15T11:45:20.510Z,1.90
2018-02-15T11:47:47.969Z,1.90
2018-02-15T11:50:16.108Z,1.90
2018-02-15T11:52:44.372Z,2.00
2018-02-15T11:55:11.817Z,2.00
2018-02-15T11:57:39.276Z,2.00
2018-02-15T12:00:06.759Z,2.00
2018-02-15T12:02:34.363Z,2.10
2018-02-15T12:05:01.932Z,2.10
2018-02-15T12:07:29.372Z,2.10
2018-02-15T12:09:56.803Z,2.20
2018-02-15T12:12:24.267Z,2.20
2018-02-15T12:14:51.745Z,2.20
2018-02-15T12:17:19.173Z,2.20
2018-02-15T12:19:46.595Z,2.20
2018-02-15T12:22:14.024Z,2.20
2018-02-15T12:24:41.459Z,2.30
2018-02-15T12:27:08.956Z,2.30
2018-02-15T12:29:36.380Z,2.30
2018-02-15T12:32:03.829Z,2.30
2018-02-15T12:34:31.239Z,2.40
2018-02-15T12:36:59.444Z,2.40
2018-02-15T12:39:26.863Z,2.40
2018-02-15T12:41:54.319Z,2.40
2018-02-15T12:44:21.755Z,2.40
2018-02-15T12:46:49.204Z,2.40
2018-02-15T12:49:16.647Z,2.50
2018-02-15T12:51:44.075Z,2.50
2018-02-15T12:54:11.508Z,2.40
2018-02-15T12:56:39.695Z,2.50
2018-02-15T12:59:07.145Z,2.50
2018-02-15T13:01:34.564Z,2.60
2018-02-15T13:04:02.024Z,2.60
2018-02-15T13:06:29.482Z,2.60
2018-02-15T13:08:56.936Z,2.70
2018-02-15T13:11:24.364Z,2.70
2018-02-15T13:13:51.788Z,2.80
2018-02-15T13:16:30.980Z,2.80
2018-02-15T13:19:10.239Z,2.90
2018-02-15T13:21:37.664Z,2.90
2018-02-15T13:24:05.088Z,2.90
2018-02-15T13:26:32.510Z,2.90
2018-02-15T13:28:59.936Z,2.90
2018-02-15T13:31:27.396Z,3.00
2018-02-15T13:33:54.824Z,3.00
2018-02-15T13:36:23.022Z,3.00
2018-02-15T13:38:50.471Z,3.00
2018-02-15T13:41:17.890Z,3.00
2018-02-15T13:43:45.314Z,3.00
2018-02-15T13:46:12.751Z,3.00
2018-02-15T13:48:40.180Z,3.00
2018-02-15T13:51:07.619Z,3.00
2018-02-15T13:53:35.055Z,3.00
2018-02-15T13:56:02.479Z,3.00
2018-02-15T13:58:30.036Z,3.00
2018-02-15T14:00:57.472Z,3.00
2018-02-15T14:03:24.896Z,3.00
2018-02-15T14:05:52.338Z,3.00
2018-02-15T14:08:19.777Z,3.00
2018-02-15T14:10:47.207Z,3.00
2018-02-15T14:13:14.652Z,3.10
2018-02-15T14:15:42.049Z,3.10
2018-02-15T14:18:09.488Z,3.10
2018-02-15T14:20:36.902Z,3.00
2018-02-15T14:23:04.328Z,3.10
2018-02-15T14:25:31.747Z,3.10
2018-02-15T14:27:59.183Z,3.10
2018-02-15T14:30:26.615Z,3.10
2018-02-15T14:32:54.048Z,3.10
2018-02-15T14:35:21.471Z,3.20
2018-02-15T14:37:48.903Z,3.10
2018-02-15T14:40:16.479Z,3.10
2018-02-15T14:42:43.964Z,3.10
2018-02-15T14:45:11.447Z,3.10
2018-02-15T14:47:38.855Z,3.20
2018-02-15T14:50:06.292Z,3.20
2018-02-15T14:52:33.718Z,3.20
2018-02-15T14:55:02.420Z,3.30
2018-02-15T14:57:29.846Z,3.30
2018-02-15T14:59:57.286Z,3.30
2018-02-15T15:02:25.491Z,3.30
2018-02-15T15:04:52.979Z,3.20
2018-02-15T15:07:20.416Z,3.30
2018-02-15T15:09:48.767Z,3.30
2018-02-15T15:12:16.196Z,3.30
2018-02-15T15:14:43.623Z,3.30
2018-02-15T15:17:11.064Z,3.30
2018-02-15T15:19:39.278Z,3.40
2018-02-15T15:22:07.408Z,3.40
2018-02-15T15:24:34.856Z,3.40
2018-02-15T15:27:02.290Z,3.40
2018-02-15T15:29:29.947Z,3.40
2018-02-15T15:31:57.407Z,3.40
2018-02-15T15:34:24.838Z,3.40
2018-02-15T15:36:52.274Z,3.40
2018-02-15T15:39:19.693Z,3.50
2018-02-15T15:41:47.196Z,3.50
2018-02-15T15:44:14.615Z,3.50
2018-02-15T15:46:42.043Z,3.50
2018-02-15T15:49:09.467Z,3.50
2018-02-15T15:51:37.667Z,3.60
2018-02-15T15:54:05.106Z,3.60
2018-02-15T15:56:33.113Z,3.60
2018-02-15T15:59:00.540Z,3.60
2018-02-15T16:01:27.969Z,3.60
2018-02-15T16:03:55.462Z,3.60
2018-02-15T16:06:22.900Z,3.60
2018-02-15T16:08:51.088Z,3.60
2018-02-15T16:11:18.527Z,3.60
2018-02-15T16:13:47.501Z,3.60
2018-02-15T16:16:14.961Z,3.60
2018-02-15T16:18:42.391Z,3.60
2018-02-15T16:21:09.837Z,3.70
2018-02-15T16:23:37.268Z,3.70
2018-02-15T16:26:04.700Z,3.70
2018-02-15T16:28:32.932Z,3.70
2018-02-15T16:31:00.368Z,3.70
2018-02-15T16:33:27.795Z,3.70
2018-02-15T16:35:55.999Z,3.70
2018-02-15T16:38:23.432Z,3.70
2018-02-15T16:40:50.879Z,3.70
2018-02-15T16:43:18.343Z,3.70
2018-02-15T16:45:45.827Z,3.70
2018-02-15T16:48:13.286Z,3.80
2018-02-15T16:50:40.715Z,3.80
2018-02-15T16:53:08.161Z,3.80
2018-02-15T16:55:35.585Z,3.80
2018-02-15T16:58:03.024Z,3.80
2018-02-15T17:00:30.460Z,3.80
2018-02-15T17:02:58.657Z,3.80
2018-02-15T17:05:26.090Z,3.80
2018-02-15T17:07:53.524Z,3.80
2018-02-15T17:10:20.948Z,3.90
2018-02-15T17:12:48.395Z,3.80
2018-02-15T17:15:15.815Z,3.90
2018-02-15T17:17:43.267Z,3.90
2018-02-15T17:20:10.698Z,3.90
2018-02-15T17:22:38.115Z,3.90
2018-02-15T17:25:05.596Z,3.90
2018-02-15T17:27:33.800Z,3.90
2018-02-15T17:30:01.226Z,3.90
2018-02-15T17:32:28.723Z,3.90
2018-02-15T17:34:56.156Z,3.90
2018-02-15T17:37:23.583Z,4.00
2018-02-15T17:39:51.041Z,4.00
2018-02-15T17:42:18.498Z,4.00
2018-02-15T17:44:45.929Z,4.00
2018-02-15T17:47:13.374Z,4.00
2018-02-15T17:49:41.491Z,3.90
2018-02-15T17:52:08.906Z,4.00
2018-02-15T17:54:36.341Z,4.00
2018-02-15T17:57:03.782Z,4.00
2018-02-15T17:59:31.255Z,4.00
2018-02-15T18:01:58.779Z,4.00
2018-02-15T18:04:26.204Z,4.00
2018-02-15T18:06:53.635Z,4.00
2018-02-15T18:09:21.065Z,4.00
2018-02-15T18:11:48.519Z,4.00
2018-02-15T18:14:15.948Z,4.10
2018-02-15T18:16:44.467Z,4.10
2018-02-15T18:19:13.035Z,4.10
2018-02-15T18:21:41.236Z,4.10
2018-02-15T18:24:08.652Z,4.10
2018-02-15T18:26:36.848Z,4.10
2018-02-15T18:29:05.368Z,4.10
2018-02-15T18:31:33.832Z,4.10
2018-02-15T18:34:01.266Z,4.10
2018-02-15T18:36:28.711Z,4.10
2018-02-15T18:38:56.136Z,4.10
2018-02-15T18:41:23.650Z,4.10
2018-02-15T18:43:51.092Z,4.10
2018-02-15T18:46:19.460Z,4.10
2018-02-15T18:48:46.901Z,4.10
2018-02-15T18:51:15.311Z,4.10
2018-02-15T18:53:42.781Z,4.10
2018-02-15T18:56:10.210Z,4.10
2018-02-15T18:58:37.635Z,4.00
2018-02-15T19:01:05.059Z,4.00
2018-02-15T19:03:32.520Z,4.00
2018-02-15T19:05:59.949Z,4.10
2018-02-15T19:08:27.390Z,4.10
2018-02-15T19:10:54.816Z,4.10
2018-02-15T19:13:22.280Z,4.00
2018-02-15T19:15:49.728Z,4.00
2018-02-15T19:18:18.005Z,4.00
2018-02-15T19:20:46.265Z,4.00
2018-02-15T19:23:13.705Z,4.00
2018-02-15T19:25:41.175Z,4.00
2018-02-15T19:28:08.608Z,4.00
2018-02-15T19:30:36.051Z,4.10
2018-02-15T19:33:03.578Z,4.10
2018-02-15T19:35:31.060Z,4.10
2018-02-15T19:37:58.915Z,4.10
2018-02-15T19:40:27.333Z,4.20
2018-02-15T19:42:54.768Z,4.20
2018-02-15T19:45:22.263Z,4.20
2018-02-15T19:47:50.612Z,4.20
2018-02-15T19:50:18.265Z,4.20
2018-02-15T19:52:45.704Z,4.20
2018-02-15T19:55:13.969Z,4.20
2018-02-15T19:57:41.457Z,4.20
2018-02-15T20:00:08.907Z,4.20
2018-02-15T20:02:36.337Z,4.20
2018-02-15T20:05:03.799Z,4.20
2018-02-15T20:07:31.313Z,4.20
2018-02-15T20:09:58.780Z,4.20
2018-02-15T20:12:27.157Z,4.10
2018-02-15T20:14:54.608Z,4.10
2018-02-15T20:17:22.041Z,4.10
2018-02-15T20:19:55.180Z,4.10
2018-02-15T20:22:22.616Z,4.10
2018-02-15T20:24:50.230Z,4.10
2018-02-15T20:27:23.212Z,4.10
2018-02-15T20:29:50.647Z,4.10
2018-02-15T20:32:18.118Z,4.10
2018-02-15T20:34:45.621Z,4.10
2018-02-15T20:37:14.074Z,4.10
2018-02-15T20:39:47.376Z,4.10
2018-02-15T20:42:14.820Z,4.20
2018-02-15T20:44:42.256Z,4.20
2018-02-15T20:47:09.707Z,4.20
2018-02-15T20:49:42.743Z,4.20
2018-02-15T20:52:15.894Z,4.20
2018-02-15T20:54:48.905Z,4.20
2018-02-15T20:57:16.334Z,4.10
2018-02-15T20:59:43.767Z,4.10
2018-02-15T21:02:11.203Z,4.10
2018-02-15T21:04:38.630Z,4.10
2018-02-15T21:07:06.068Z,4.00
2018-02-15T21:09:33.499Z,4.00
2018-02-15T21:12:00.935Z,4.00
2018-02-15T21:14:28.368Z,4.00
2018-02-15T21:16:56.561Z,3.90
2018-02-15T21:19:24.027Z,4.00
2018-02-15T21:21:51.446Z,3.90
2018-02-15T21:24:18.888Z,3.90
2018-02-15T21:26:46.320Z,3.80
2018-02-15T21:29:13.746Z,3.80
2018-02-15T21:31:41.175Z,3.80
2018-02-15T21:34:09.378Z,3.80
2018-02-15T21:36:43.571Z,3.80
2018-02-15T21:39:16.970Z,3.80
2018-02-15T21:41:44.395Z,3.80
2018-02-15T21:44:11.836Z,3.80
2018-02-15T21:46:39.260Z,3.70
2018-02-15T21:49:06.999Z,3.70
2018-02-15T21:51:34.409Z,3.80
2018-02-15T21:54:01.836Z,3.90
2018-02-15T21:56:29.280Z,3.90
2018-02-15T21:58:56.713Z,3.80
2018-02-15T22:01:24.915Z,3.80
2018-02-15T22:03:52.342Z,3.80
2018-02-15T22:06:19.788Z,3.70
2018-02-15T22:08:47.212Z,3.50
2018-02-15T22:11:14.656Z,3.60
2018-02-15T22:13:42.087Z,3.60
2018-02-15T22:16:09.523Z,3.70
2018-02-15T22:18:37.716Z,3.80
2018-02-15T22:21:05.164Z,3.80
2018-02-15T22:23:32.583Z,3.80
2018-02-15T22:26:00.018Z,3.80
2018-02-15T22:28:27.446Z,3.90
2018-02-15T22:30:54.891Z,3.90
2018-02-15T22:33:22.327Z,3.90
2018-02-15T22:35:50.525Z,3.70
2018-02-15T22:38:17.951Z,3.80
2018-02-15T22:40:45.391Z,3.80
2018-02-15T22:43:12.928Z,3.70
2018-02-15T22:45:40.363Z,3.80
2018-02-15T22:48:07.801Z,3.70
2018-02-15T22:50:35.228Z,3.70
2018-02-15T22:53:02.668Z,3.80
2018-02-15T22:55:30.104Z,3.80
2018-02-15T22:57:57.553Z,3.80
2018-02-15T23:00:24.988Z,3.90
2018-02-15T23:02:52.431Z,3.90
2018-02-15T23:05:20.687Z,3.90
2018-02-15T23:07:48.114Z,3.90
2018-02-15T23:10:15.532Z,3.90
2018-02-15T23:12:43.031Z,4.00
2018-02-15T23:15:10.465Z,4.00
2018-02-15T23:17:37.891Z,4.00
2018-02-15T23:20:05.326Z,4.00
2018-02-15T23:22:33.518Z,4.00
2018-02-15T23:25:00.967Z,3.90
2018-02-15T23:27:29.543Z,3.90
2018-02-15T23:29:57.755Z,3.90
2018-02-15T23:32:25.193Z,3.90
2018-02-15T23:34:52.623Z,3.90
2018-02-15T23:37:20.057Z,3.90
2018-02-15T23:39:47.499Z,3.90
2018-02-15T23:42:14.924Z,3.90
2018-02-15T23:44:42.355Z,3.90
2018-02-15T23:47:09.798Z,3.90
2018-02-15T23:49:37.235Z,3.90
2018-02-15T23:52:04.664Z,3.90
2018-02-15T23:54:32.096Z,3.90
2018-02-15T23:57:00.304Z,3.90
2018-02-15T23:59:27.729Z,3.90
